Wacissa, FL (32361)

7:54 PM EDT on September 01, 2015 (GMT -0400)
Chaires Elementary WeatherSTEM | | Change Station
CLOSE
Current Station
Personal Weather Station
Location: Tallahassee, FL
Elevation: 89 ft
Nearby Weather Stations

Elev 89 ft 30.44 °N, 84.12 °W | Updated 10 minutes ago

Overcast
Overcast
78.4 °F
Feels Like 82 °F
N
0.0
Wind Variable Wind from NW
Gusts 3.0 mph

Today
High -- | Low -- °F
--% Chance of Precip.
Yesterday
High -- | Low -- °F
Precip. -- in
7:12 AM 7:58 PM
Waning Gibbous, 85% visible
Pressure 30.02 in
Visibility 10.0 miles
Clouds Mostly Cloudy 6000 ft
Mostly Cloudy 12000 ft
Mostly Cloudy 25000 ft
Heat Index 82 °F
Dew Point 76 °F
Humidity 93%
Rainfall 0.00 in
Snow Depth Not available.
UV 0.0 out of 12
Pollen 6.50 out of 12
Air Quality Not available.
Flu Activity Not available.
METAR KTLH 012253Z 11005KT 10SM BKN060 BKN120 BKN250 28/23 A3003 RMK AO2 RAE04 SLP166 P0004 T02830233
Pressure 30.02 in
Visibility 10.0 miles
Clouds Mostly Cloudy 6000 ft
Mostly Cloudy 12000 ft
Mostly Cloudy 25000 ft
Heat Index 82 °F
Dew Point 76 °F
Humidity 93%
Rainfall 0.00 in
Snow Depth Not available.
UV 0.0 out of 12
Pollen 6.50 out of 12
Air Quality Not available.
Flu Activity Not available.
METAR KTLH 012253Z 11005KT 10SM BKN060 BKN120 BKN250 28/23 A3003 RMK AO2 RAE04 SLP166 P0004 T02830233

10-Day Weather Forecast

×

Almanac

Astronomy

Sep. 01, 2015 Rise Set
Actual Time
Civil Twilight
Nautical Twilight
Astronomical Twilight
Moon
Length of Visible Light
Length of Day
Tomorrow will be .
, % of the Moon is Illuminated

Today's Extremes

State Highs State Lows

Community

WunderPhotos

Upload Photos

1,851,643 photos uploaded!

WunderBlogs® & News

Nearby

Air Quality

  Air Quality AQ Index Pollutant
Not available.

Snow Depth

Station Depth Elevation

Earthquake Activity

City Distance Mag. Time & Date
Minimum magnitude displayed is 2.5.

Coastal Water Temperatures

Place Temperature

Stations

Nearby Weather Stations

Station Location Temp. Windchill Dew Point Humidity Wind Precip. Elev Updated Type